createdAt,value
2023-03-29T00:00:40.566Z,545.00
2023-03-29T00:01:40.566Z,544.00
2023-03-29T00:02:40.678Z,545.00
2023-03-29T00:03:40.646Z,546.00
2023-03-29T00:04:40.590Z,547.00
2023-03-29T00:05:40.546Z,545.00
2023-03-29T00:06:40.573Z,545.00
2023-03-29T00:07:40.532Z,547.00
2023-03-29T00:08:40.545Z,544.00
2023-03-29T00:09:40.557Z,544.00
2023-03-29T00:10:40.543Z,544.00
2023-03-29T00:11:40.585Z,543.00
2023-03-29T00:12:40.514Z,543.00
2023-03-29T00:13:40.506Z,544.00
2023-03-29T00:14:39.501Z,544.00
2023-03-29T00:15:40.502Z,544.00
2023-03-29T00:16:40.575Z,544.00
2023-03-29T00:17:40.555Z,542.00
2023-03-29T00:18:40.504Z,543.00
2023-03-29T00:19:40.511Z,543.00
2023-03-29T00:20:40.489Z,545.00
2023-03-29T00:21:39.492Z,545.00
2023-03-29T00:22:40.529Z,547.00
2023-03-29T00:23:40.491Z,548.00
2023-03-29T00:24:40.479Z,547.00
2023-03-29T00:25:40.475Z,547.00
2023-03-29T00:26:40.488Z,544.00
2023-03-29T00:27:40.484Z,541.00
2023-03-29T00:28:40.513Z,540.00
2023-03-29T00:29:40.478Z,540.00
2023-03-29T00:30:40.479Z,539.00
2023-03-29T00:31:40.484Z,540.00
2023-03-29T00:32:40.482Z,541.00
2023-03-29T00:33:40.467Z,540.00
2023-03-29T00:34:40.491Z,538.00
2023-03-29T00:35:40.483Z,538.00
2023-03-29T00:36:40.478Z,539.00
2023-03-29T00:37:40.451Z,540.00
2023-03-29T00:38:40.444Z,538.00
2023-03-29T00:39:40.433Z,539.00
2023-03-29T00:40:40.451Z,540.00
2023-03-29T00:41:39.428Z,541.00
2023-03-29T00:42:40.425Z,540.00
2023-03-29T00:43:40.432Z,541.00
2023-03-29T00:44:40.413Z,539.00
2023-03-29T00:45:40.395Z,540.00
2023-03-29T00:46:40.476Z,542.00
2023-03-29T00:47:39.411Z,541.00
2023-03-29T00:48:40.399Z,540.00
2023-03-29T00:49:40.413Z,541.00
2023-03-29T00:50:40.412Z,540.00
2023-03-29T00:51:40.399Z,539.00
2023-03-29T00:52:40.427Z,539.00
2023-03-29T00:53:39.404Z,538.00
2023-03-29T00:54:40.413Z,538.00
2023-03-29T00:55:40.396Z,538.00
2023-03-29T00:56:40.550Z,539.00
2023-03-29T00:57:40.379Z,538.00
2023-03-29T00:58:40.455Z,536.00
2023-03-29T00:59:40.385Z,535.00
2023-03-29T01:00:40.424Z,536.00
2023-03-29T01:01:40.463Z,539.00
2023-03-29T01:02:40.558Z,542.00
2023-03-29T01:03:39.468Z,545.00
2023-03-29T01:04:39.408Z,545.00
2023-03-29T01:05:40.477Z,543.00
2023-03-29T01:06:40.443Z,544.00
2023-03-29T01:07:39.411Z,545.00
2023-03-29T01:08:39.414Z,543.00
2023-03-29T01:09:40.428Z,542.00
2023-03-29T01:10:40.426Z,541.00
2023-03-29T01:11:40.446Z,540.00
2023-03-29T01:12:40.526Z,540.00
2023-03-29T01:13:39.450Z,540.00
2023-03-29T01:14:40.440Z,539.00
2023-03-29T01:15:40.470Z,540.00
2023-03-29T01:16:40.493Z,541.00
2023-03-29T01:17:40.559Z,542.00
2023-03-29T01:18:39.495Z,543.00
2023-03-29T01:19:40.489Z,542.00
2023-03-29T01:20:40.491Z,542.00
2023-03-29T01:21:40.493Z,544.00
2023-03-29T01:22:40.490Z,544.00
2023-03-29T01:23:40.523Z,545.00
2023-03-29T01:24:40.506Z,543.00
2023-03-29T01:25:40.495Z,544.00
2023-03-29T01:26:40.516Z,543.00
2023-03-29T01:27:40.503Z,541.00
2023-03-29T01:28:40.511Z,540.00
2023-03-29T01:29:40.499Z,538.00
2023-03-29T01:30:40.504Z,536.00
2023-03-29T01:31:40.568Z,536.00
2023-03-29T01:32:39.513Z,536.00
2023-03-29T01:33:40.526Z,537.00
2023-03-29T01:34:40.508Z,535.00
2023-03-29T01:35:40.547Z,535.00
2023-03-29T01:36:40.529Z,535.00
2023-03-29T01:37:39.542Z,536.00
2023-03-29T01:38:40.564Z,538.00
2023-03-29T01:39:40.534Z,537.00
2023-03-29T01:40:40.532Z,536.00
2023-03-29T01:41:40.592Z,535.00
2023-03-29T01:42:39.575Z,534.00
2023-03-29T01:43:40.582Z,536.00
2023-03-29T01:44:40.566Z,536.00
2023-03-29T01:45:40.646Z,537.00
2023-03-29T01:46:40.576Z,537.00
2023-03-29T01:47:40.605Z,538.00
2023-03-29T01:48:39.578Z,539.00
2023-03-29T01:49:40.588Z,537.00
2023-03-29T01:50:40.619Z,535.00
2023-03-29T01:51:39.589Z,532.00
2023-03-29T01:52:40.587Z,533.00
2023-03-29T01:53:40.589Z,532.00
2023-03-29T01:54:40.616Z,534.00
2023-03-29T01:55:39.565Z,530.00
2023-03-29T01:56:40.603Z,528.00
2023-03-29T01:57:40.639Z,528.00
2023-03-29T01:58:40.673Z,528.00
2023-03-29T01:59:40.704Z,528.00
2023-03-29T02:00:40.753Z,527.00
2023-03-29T02:01:40.888Z,527.00
2023-03-29T02:02:40.934Z,529.00
2023-03-29T02:03:39.953Z,530.00
2023-03-29T02:04:40.952Z,531.00
2023-03-29T02:05:41.007Z,532.00
2023-03-29T02:06:41.041Z,532.00
2023-03-29T02:07:41.056Z,533.00
2023-03-29T02:08:41.095Z,534.00
2023-03-29T02:09:41.164Z,534.00
2023-03-29T02:10:41.148Z,531.00
2023-03-29T02:11:41.170Z,533.00
2023-03-29T02:12:41.198Z,532.00
2023-03-29T02:13:41.205Z,531.00
2023-03-29T02:14:41.248Z,531.00
2023-03-29T02:15:41.295Z,531.00
2023-03-29T02:16:41.227Z,532.00
2023-03-29T02:17:41.237Z,531.00
2023-03-29T02:18:41.247Z,532.00
2023-03-29T02:19:40.248Z,529.00
2023-03-29T02:20:40.246Z,530.00
2023-03-29T02:21:41.267Z,531.00
2023-03-29T02:22:41.255Z,531.00
2023-03-29T02:23:41.245Z,530.00
2023-03-29T02:24:40.248Z,527.00
2023-03-29T02:25:41.247Z,529.00
2023-03-29T02:26:41.239Z,531.00
2023-03-29T02:27:40.267Z,529.00
2023-03-29T02:28:41.229Z,530.00
2023-03-29T02:29:41.278Z,528.00
2023-03-29T02:30:40.293Z,527.00
2023-03-29T02:31:41.417Z,524.00
2023-03-29T02:32:41.355Z,524.00
2023-03-29T02:33:41.419Z,523.00
2023-03-29T02:34:41.433Z,523.00
2023-03-29T02:35:40.507Z,521.00
2023-03-29T02:36:41.548Z,521.00
2023-03-29T02:37:41.608Z,523.00
2023-03-29T02:38:41.657Z,523.00
2023-03-29T02:39:41.768Z,521.00
2023-03-29T02:40:41.781Z,522.00
2023-03-29T02:41:41.863Z,525.00
2023-03-29T02:42:41.951Z,522.00
2023-03-29T02:43:42.082Z,521.00
2023-03-29T02:44:42.073Z,521.00
2023-03-29T02:45:42.111Z,521.00
2023-03-29T02:46:41.222Z,520.00
2023-03-29T02:47:42.226Z,521.00
2023-03-29T02:48:42.379Z,522.00
2023-03-29T02:49:42.351Z,522.00
2023-03-29T02:50:42.421Z,520.00
2023-03-29T02:51:41.468Z,518.00
2023-03-29T02:52:42.529Z,518.00
2023-03-29T02:53:42.567Z,519.00
2023-03-29T02:54:42.698Z,521.00
2023-03-29T02:55:42.686Z,521.00
2023-03-29T02:56:42.769Z,521.00
2023-03-29T02:57:42.788Z,521.00
2023-03-29T02:58:42.833Z,520.00
2023-03-29T02:59:41.891Z,523.00
2023-03-29T03:00:43.072Z,524.00
2023-03-29T03:01:42.059Z,522.00
2023-03-29T03:02:43.219Z,522.00
2023-03-29T03:03:42.122Z,522.00
2023-03-29T03:04:43.110Z,521.00
2023-03-29T03:05:42.336Z,522.00
2023-03-29T03:06:43.197Z,525.00
2023-03-29T03:07:43.263Z,525.00
2023-03-29T03:08:43.297Z,525.00
2023-03-29T03:09:43.339Z,525.00
2023-03-29T03:10:43.395Z,528.00
2023-03-29T03:11:43.445Z,530.00
2023-03-29T03:12:43.467Z,528.00
2023-03-29T03:13:43.520Z,528.00
2023-03-29T03:14:42.564Z,527.00
2023-03-29T03:15:43.626Z,528.00
2023-03-29T03:16:42.757Z,527.00
2023-03-29T03:17:43.718Z,526.00
2023-03-29T03:18:43.798Z,527.00
2023-03-29T03:19:43.782Z,525.00
2023-03-29T03:20:43.818Z,523.00
2023-03-29T03:21:42.870Z,525.00
2023-03-29T03:22:42.914Z,527.00
2023-03-29T03:23:43.944Z,528.00
2023-03-29T03:24:43.985Z,529.00
2023-03-29T03:25:44.081Z,530.00
2023-03-29T03:26:44.082Z,529.00
2023-03-29T03:27:44.148Z,529.00
2023-03-29T03:28:44.192Z,528.00
2023-03-29T03:29:44.234Z,528.00
2023-03-29T03:30:44.290Z,528.00
2023-03-29T03:31:44.411Z,526.00
2023-03-29T03:32:44.402Z,527.00
2023-03-29T03:33:44.436Z,527.00
2023-03-29T03:34:44.496Z,529.00
2023-03-29T03:35:44.586Z,528.00
2023-03-29T03:36:44.588Z,526.00
2023-03-29T03:37:43.646Z,528.00
2023-03-29T03:38:43.678Z,529.00
2023-03-29T03:39:44.734Z,529.00
2023-03-29T03:40:44.797Z,529.00
2023-03-29T03:41:44.830Z,527.00
2023-03-29T03:42:44.922Z,528.00
2023-03-29T03:43:44.949Z,525.00
2023-03-29T03:44:44.975Z,525.00
2023-03-29T03:45:45.047Z,524.00
2023-03-29T03:46:45.070Z,526.00
2023-03-29T03:47:45.135Z,530.00
2023-03-29T03:48:44.222Z,530.00
2023-03-29T03:49:44.229Z,532.00
2023-03-29T03:50:44.298Z,529.00
2023-03-29T03:51:45.350Z,526.00
2023-03-29T03:52:45.382Z,528.00
2023-03-29T03:53:45.426Z,527.00
2023-03-29T03:54:45.493Z,528.00
2023-03-29T03:55:45.565Z,527.00
2023-03-29T03:56:45.601Z,528.00
2023-03-29T03:57:44.639Z,529.00
2023-03-29T03:58:45.708Z,531.00
2023-03-29T03:59:44.750Z,530.00
2023-03-29T04:00:45.819Z,530.00
2023-03-29T04:01:45.844Z,529.00
2023-03-29T04:02:45.030Z,530.00
2023-03-29T04:03:46.082Z,529.00
2023-03-29T04:04:46.021Z,529.00
2023-03-29T04:05:46.080Z,528.00
2023-03-29T04:06:46.198Z,527.00
2023-03-29T04:07:46.191Z,526.00
2023-03-29T04:08:46.234Z,527.00
2023-03-29T04:09:46.306Z,527.00
2023-03-29T04:10:46.351Z,529.00
2023-03-29T04:11:46.417Z,528.00
2023-03-29T04:12:46.499Z,528.00
2023-03-29T04:13:46.544Z,530.00
2023-03-29T04:14:46.583Z,529.00
2023-03-29T04:15:45.690Z,530.00
2023-03-29T04:16:46.696Z,530.00
2023-03-29T04:17:46.783Z,529.00
2023-03-29T04:18:46.847Z,530.00
2023-03-29T04:19:46.866Z,530.00
2023-03-29T04:20:46.938Z,526.00
2023-03-29T04:21:46.969Z,527.00
2023-03-29T04:22:47.057Z,524.00
2023-03-29T04:23:47.079Z,525.00
2023-03-29T04:24:47.162Z,526.00
2023-03-29T04:25:47.218Z,525.00
2023-03-29T04:26:46.253Z,526.00
2023-03-29T04:27:46.341Z,528.00
2023-03-29T04:28:46.386Z,529.00
2023-03-29T04:29:47.478Z,528.00
2023-03-29T04:30:47.546Z,523.00
2023-03-29T04:31:46.587Z,521.00
2023-03-29T04:32:46.645Z,522.00
2023-03-29T04:33:47.694Z,522.00
2023-03-29T04:34:47.720Z,524.00
2023-03-29T04:35:47.888Z,524.00
2023-03-29T04:36:47.830Z,525.00
2023-03-29T04:37:46.878Z,524.00
2023-03-29T04:38:48.172Z,525.00
2023-03-29T04:39:46.973Z,526.00
2023-03-29T04:40:48.038Z,527.00
2023-03-29T04:41:48.086Z,527.00
2023-03-29T04:42:48.118Z,528.00
2023-03-29T04:43:48.213Z,527.00
2023-03-29T04:44:48.261Z,527.00
2023-03-29T04:45:47.290Z,525.00
2023-03-29T04:46:48.429Z,525.00
2023-03-29T04:47:48.548Z,524.00
2023-03-29T04:48:47.466Z,523.00
2023-03-29T04:49:47.626Z,524.00
2023-03-29T04:50:48.578Z,522.00
2023-03-29T04:51:48.628Z,521.00
2023-03-29T04:52:47.702Z,519.00
2023-03-29T04:53:48.732Z,518.00
2023-03-29T04:54:48.801Z,519.00
2023-03-29T04:55:48.816Z,518.00
2023-03-29T04:56:48.920Z,518.00
2023-03-29T04:57:48.914Z,516.00
2023-03-29T04:58:47.973Z,516.00
2023-03-29T04:59:49.001Z,518.00
2023-03-29T05:00:49.067Z,519.00
2023-03-29T05:01:49.148Z,520.00
2023-03-29T05:02:49.168Z,517.00
2023-03-29T05:03:49.237Z,518.00
2023-03-29T05:04:49.254Z,517.00
2023-03-29T05:05:49.279Z,519.00
2023-03-29T05:06:49.430Z,521.00
2023-03-29T05:12:48.518Z,525.00
2023-03-29T05:13:48.741Z,525.00
2023-03-29T05:14:48.698Z,522.00
2023-03-29T05:15:49.721Z,521.00
2023-03-29T05:16:49.712Z,523.00
2023-03-29T05:17:49.813Z,522.00
2023-03-29T05:18:49.771Z,523.00
2023-03-29T05:19:50.055Z,522.00
2023-03-29T05:20:49.994Z,524.00
2023-03-29T05:21:50.137Z,525.00
2023-03-29T05:22:50.106Z,528.00
2023-03-29T05:23:49.987Z,530.00
2023-03-29T05:24:50.087Z,534.00
2023-03-29T05:25:50.114Z,537.00
2023-03-29T05:28:49.964Z,550.00
2023-03-29T05:30:49.218Z,567.00
2023-03-29T05:31:50.284Z,576.00
2023-03-29T05:32:50.357Z,582.00
2023-03-29T05:33:50.306Z,590.00
2023-03-29T05:34:50.387Z,607.00
2023-03-29T05:35:50.390Z,618.00
2023-03-29T05:36:50.383Z,627.00
2023-03-29T05:37:50.457Z,638.00
2023-03-29T05:38:50.429Z,655.00
2023-03-29T05:41:49.514Z,696.00
2023-03-29T05:42:50.676Z,704.00
2023-03-29T05:44:49.542Z,738.00
2023-03-29T05:45:50.565Z,766.00
2023-03-29T05:46:50.915Z,841.00
2023-03-29T05:49:50.723Z,913.00
2023-03-29T05:50:51.004Z,942.00
2023-03-29T05:51:56.945Z,964.00
2023-03-29T05:52:50.572Z,986.00
2023-03-29T05:54:49.569Z,1060.00
2023-03-29T05:55:50.533Z,1100.00
2023-03-29T05:59:49.507Z,1192.00
2023-03-29T06:00:50.606Z,1205.00
2023-03-29T06:01:50.894Z,1214.00
2023-03-29T06:05:49.765Z,1206.00
2023-03-29T06:06:50.464Z,1199.00
2023-03-29T06:07:50.460Z,1196.00
2023-03-29T06:08:50.450Z,1197.00
2023-03-29T06:13:49.422Z,1200.00
2023-03-29T06:14:50.438Z,1201.00
2023-03-29T06:15:50.403Z,1197.00
2023-03-29T06:17:49.482Z,1196.00
2023-03-29T06:18:50.395Z,1193.00
2023-03-29T06:19:50.386Z,1190.00
2023-03-29T06:21:49.377Z,1184.00
2023-03-29T06:22:50.356Z,1181.00
2023-03-29T06:25:49.337Z,1176.00
2023-03-29T06:26:50.355Z,1173.00
2023-03-29T06:28:52.094Z,1172.00
2023-03-29T06:29:50.308Z,1173.00
2023-03-29T06:30:50.356Z,1173.00
2023-03-29T06:32:49.343Z,1179.00
2023-03-29T06:33:50.320Z,1181.00
2023-03-29T06:35:49.338Z,1186.00
2023-03-29T06:36:50.264Z,1187.00
2023-03-29T06:37:50.246Z,1184.00
2023-03-29T06:38:50.262Z,1183.00
2023-03-29T06:39:52.792Z,1180.00
2023-03-29T06:43:49.199Z,1171.00
2023-03-29T06:44:50.192Z,1171.00
2023-03-29T06:45:50.230Z,1167.00
2023-03-29T06:49:49.181Z,1164.00
2023-03-29T06:50:50.140Z,1163.00
2023-03-29T06:51:50.452Z,1161.00
2023-03-29T06:56:49.432Z,1201.00
2023-03-29T06:57:50.267Z,1222.00
2023-03-29T06:58:50.093Z,1225.00
2023-03-29T06:59:50.119Z,1223.00
2023-03-29T07:00:49.094Z,1218.00
2023-03-29T07:01:50.130Z,1220.00
2023-03-29T07:02:50.193Z,1221.00
2023-03-29T07:03:50.129Z,1223.00
2023-03-29T07:06:49.062Z,1230.00
2023-03-29T07:07:50.066Z,1232.00
2023-03-29T07:09:49.004Z,1236.00
2023-03-29T07:10:50.023Z,1237.00
2023-03-29T07:11:50.037Z,1238.00
2023-03-29T07:16:49.043Z,1232.00
2023-03-29T07:17:50.048Z,1231.00
2023-03-29T07:18:50.036Z,1234.00
2023-03-29T07:20:48.929Z,1244.00
2023-03-29T07:21:49.941Z,1247.00
2023-03-29T07:24:48.897Z,1254.00
2023-03-29T07:25:49.909Z,1256.00
2023-03-29T07:27:03.334Z,1259.00
2023-03-29T07:31:48.834Z,1261.00
2023-03-29T07:32:49.949Z,1262.00
2023-03-29T07:33:49.907Z,1262.00
2023-03-29T07:34:49.844Z,1262.00
2023-03-29T07:38:48.789Z,1262.00
2023-03-29T07:39:49.782Z,1263.00
2023-03-29T07:40:49.770Z,1263.00
2023-03-29T07:46:48.799Z,1293.00
2023-03-29T07:47:50.012Z,1312.00
2023-03-29T07:49:48.699Z,1453.00
2023-03-29T07:50:49.720Z,1489.00
2023-03-29T07:55:48.657Z,1658.00
2023-03-29T07:56:49.731Z,1725.00
2023-03-29T07:58:48.638Z,1769.00
2023-03-29T07:59:48.644Z,1761.00
2023-03-29T08:04:48.611Z,1466.00
2023-03-29T08:09:48.568Z,1489.00
2023-03-29T08:10:49.572Z,1508.00
2023-03-29T08:11:49.542Z,1555.00
2023-03-29T08:12:49.541Z,1580.00
2023-03-29T08:15:48.555Z,1588.00
2023-03-29T08:16:48.544Z,1604.00
2023-03-29T08:17:48.577Z,1623.00
2023-03-29T08:18:49.525Z,1671.00
2023-03-29T08:19:51.012Z,1696.00
2023-03-29T08:23:48.504Z,1788.00
2023-03-29T08:24:49.513Z,1812.00
2023-03-29T08:25:48.520Z,1841.00
2023-03-29T08:26:49.507Z,1860.00
2023-03-29T08:27:49.522Z,1866.00
2023-03-29T08:28:49.487Z,1877.00
2023-03-29T08:29:49.500Z,1885.00
2023-03-29T08:30:49.542Z,1891.00
2023-03-29T08:31:49.453Z,1902.00
2023-03-29T08:35:48.514Z,1974.00
2023-03-29T08:36:49.423Z,1994.00
2023-03-29T08:37:49.416Z,2013.00
2023-03-29T08:38:48.438Z,2034.00
2023-03-29T08:39:49.409Z,2046.00
2023-03-29T08:43:48.383Z,2097.00
2023-03-29T08:44:49.369Z,2168.00
2023-03-29T08:45:50.915Z,2154.00
2023-03-29T08:46:49.397Z,2198.00
2023-03-29T08:47:49.538Z,2216.00
2023-03-29T08:49:48.346Z,2230.00
2023-03-29T08:50:49.322Z,2231.00
2023-03-29T08:51:49.352Z,2249.00
2023-03-29T08:55:48.301Z,2425.00
2023-03-29T08:56:49.316Z,2455.00
2023-03-29T08:57:49.533Z,2453.00
2023-03-29T08:59:48.276Z,2439.00
2023-03-29T09:00:49.258Z,2437.00
2023-03-29T09:01:49.336Z,2243.00
2023-03-29T09:05:48.245Z,782.00
2023-03-29T09:06:48.225Z,704.00
2023-03-29T09:10:48.220Z,569.00
2023-03-29T09:11:49.194Z,544.00
2023-03-29T09:12:49.252Z,528.00
2023-03-29T09:13:49.171Z,523.00
2023-03-29T09:17:49.589Z,511.00
2023-03-29T09:18:48.149Z,516.00
2023-03-29T09:19:49.261Z,522.00
2023-03-29T09:20:49.132Z,523.00
2023-03-29T09:22:48.102Z,516.00
2023-03-29T09:23:49.085Z,513.00
2023-03-29T09:24:49.082Z,508.00
2023-03-29T09:28:48.125Z,498.00
2023-03-29T09:29:48.051Z,501.00
2023-03-29T09:32:48.129Z,663.00
2023-03-29T09:33:49.045Z,730.00
2023-03-29T09:34:49.075Z,716.00
2023-03-29T09:35:49.129Z,712.00
2023-03-29T09:36:49.168Z,713.00
2023-03-29T09:38:48.249Z,730.00
2023-03-29T09:39:49.279Z,781.00
2023-03-29T09:40:49.301Z,803.00
2023-03-29T09:41:49.330Z,993.00
2023-03-29T09:42:49.364Z,920.00
2023-03-29T09:43:49.356Z,910.00
2023-03-29T09:47:48.505Z,973.00
2023-03-29T09:48:49.371Z,1126.00
2023-03-29T09:49:49.397Z,1157.00
2023-03-29T09:50:49.464Z,900.00
2023-03-29T09:51:48.467Z,923.00
2023-03-29T09:52:49.982Z,1050.00
2023-03-29T09:54:48.636Z,1113.00
2023-03-29T09:55:50.227Z,1165.00
2023-03-29T09:56:49.739Z,1196.00
2023-03-29T09:57:48.679Z,1221.00
2023-03-29T09:58:49.718Z,1240.00
2023-03-29T09:59:49.734Z,1279.00
2023-03-29T10:00:49.838Z,1337.00
2023-03-29T10:01:49.989Z,1377.00
2023-03-29T10:02:49.911Z,1400.00
2023-03-29T10:03:49.971Z,1426.00
2023-03-29T10:04:49.960Z,1506.00
2023-03-29T10:05:50.005Z,1522.00
2023-03-29T10:06:50.002Z,1536.00
2023-03-29T10:07:50.028Z,1552.00
2023-03-29T10:08:50.070Z,1589.00
2023-03-29T10:09:50.076Z,1628.00
2023-03-29T10:13:49.105Z,1724.00
2023-03-29T10:14:53.050Z,1752.00
2023-03-29T10:17:49.119Z,1855.00
2023-03-29T10:18:50.157Z,1903.00
2023-03-29T10:20:49.089Z,1943.00
2023-03-29T10:21:50.080Z,1961.00
2023-03-29T10:22:50.080Z,1998.00
2023-03-29T10:23:50.057Z,2034.00
2023-03-29T10:26:49.017Z,2115.00
2023-03-29T10:27:49.036Z,2133.00
2023-03-29T10:28:50.030Z,2186.00
2023-03-29T10:29:50.038Z,2214.00
2023-03-29T10:30:50.043Z,2224.00
2023-03-29T10:33:49.030Z,2287.00
2023-03-29T10:34:50.002Z,2381.00
2023-03-29T10:35:50.052Z,2380.00
2023-03-29T10:37:48.969Z,2410.00
2023-03-29T10:38:50.277Z,2435.00
2023-03-29T10:39:49.317Z,2456.00
2023-03-29T10:42:49.538Z,2531.00
2023-03-29T10:43:51.188Z,2554.00
2023-03-29T10:45:51.742Z,2588.00
2023-03-29T10:47:49.118Z,2587.00
2023-03-29T10:48:50.402Z,2586.00
2023-03-29T10:51:49.235Z,2578.00
2023-03-29T10:52:50.381Z,2577.00
2023-03-29T10:53:50.737Z,2572.00
2023-03-29T10:54:50.418Z,2568.00
2023-03-29T10:57:49.500Z,2557.00
2023-03-29T10:58:50.255Z,2556.00
2023-03-29T10:59:50.189Z,2551.00
2023-03-29T11:03:49.600Z,2550.00
2023-03-29T11:04:50.375Z,2549.00
2023-03-29T11:05:50.984Z,2543.00
2023-03-29T11:06:50.899Z,2539.00
2023-03-29T11:07:50.417Z,2536.00
2023-03-29T11:08:51.038Z,2539.00
2023-03-29T11:09:50.534Z,2535.00
2023-03-29T11:10:51.275Z,2528.00
2023-03-29T11:14:50.257Z,2505.00
2023-03-29T11:15:51.407Z,2501.00
2023-03-29T11:16:50.936Z,2500.00
2023-03-29T11:17:51.542Z,2502.00
2023-03-29T11:18:51.354Z,2498.00
2023-03-29T11:21:49.624Z,2497.00
2023-03-29T11:22:51.633Z,2497.00
2023-03-29T11:23:51.942Z,2496.00
2023-03-29T11:25:50.195Z,2487.00
2023-03-29T11:27:50.100Z,2488.00
2023-03-29T11:28:51.998Z,2485.00
2023-03-29T11:29:51.312Z,2485.00
2023-03-29T11:30:50.873Z,2486.00
2023-03-29T11:31:50.120Z,2480.00
2023-03-29T11:32:50.728Z,2478.00
2023-03-29T11:33:49.965Z,2477.00
2023-03-29T11:34:51.375Z,2476.00
2023-03-29T11:35:51.322Z,2474.00
2023-03-29T11:38:51.699Z,2467.00
2023-03-29T11:40:50.491Z,2464.00
2023-03-29T11:41:51.032Z,2462.00
2023-03-29T11:42:51.847Z,2464.00
2023-03-29T11:45:50.134Z,2460.00
2023-03-29T11:46:51.368Z,2461.00
2023-03-29T11:47:51.008Z,2458.00
2023-03-29T11:48:51.151Z,2455.00
2023-03-29T11:49:51.616Z,2455.00
2023-03-29T11:50:51.779Z,2453.00
2023-03-29T11:51:51.788Z,2449.00
2023-03-29T11:53:50.280Z,2444.00
2023-03-29T11:54:51.951Z,2445.00
2023-03-29T11:57:50.865Z,2437.00
2023-03-29T11:58:52.073Z,2436.00
2023-03-29T11:59:52.175Z,2431.00
2023-03-29T12:01:50.607Z,2432.00
2023-03-29T12:02:50.986Z,2430.00
2023-03-29T12:03:51.153Z,2426.00
2023-03-29T12:04:51.395Z,2391.00
2023-03-29T12:05:50.582Z,2208.00
2023-03-29T12:06:51.464Z,2038.00
2023-03-29T12:07:51.876Z,2205.00
2023-03-29T12:11:50.539Z,2245.00
2023-03-29T12:12:50.736Z,2261.00
2023-03-29T12:13:51.668Z,2275.00
2023-03-29T12:14:51.719Z,2287.00
2023-03-29T12:17:50.710Z,2315.00
2023-03-29T12:18:51.644Z,2323.00
2023-03-29T12:23:51.162Z,2317.00
2023-03-29T12:24:52.529Z,2329.00
2023-03-29T12:25:52.290Z,2333.00
2023-03-29T12:26:52.872Z,2345.00
2023-03-29T12:36:51.942Z,2455.00
2023-03-29T12:42:52.185Z,2513.00
2023-03-29T12:43:52.943Z,2514.00
2023-03-29T12:44:52.867Z,2513.00
2023-03-29T12:46:52.414Z,2522.00
2023-03-29T12:47:53.374Z,2528.00
2023-03-29T12:48:53.553Z,2532.00
2023-03-29T12:49:53.967Z,2547.00
2023-03-29T12:52:52.963Z,2513.00
2023-03-29T12:57:52.573Z,2504.00
2023-03-29T12:58:53.380Z,2507.00
2023-03-29T12:59:53.915Z,2504.00
2023-03-29T13:00:54.146Z,2496.00
2023-03-29T13:05:52.402Z,2394.00
2023-03-29T13:06:54.154Z,2404.00
2023-03-29T13:07:53.379Z,2448.00
2023-03-29T13:08:54.064Z,2449.00
2023-03-29T13:11:52.520Z,2413.00
2023-03-29T13:12:53.519Z,2420.00
2023-03-29T13:13:53.508Z,2400.00
2023-03-29T13:17:52.590Z,2375.00
2023-03-29T13:18:53.570Z,2378.00
2023-03-29T13:19:53.569Z,2390.00
2023-03-29T13:20:53.581Z,2393.00
2023-03-29T13:24:52.825Z,2340.00
2023-03-29T13:25:53.765Z,2345.00
2023-03-29T13:27:52.757Z,2337.00
2023-03-29T13:28:54.620Z,2342.00
2023-03-29T13:29:53.669Z,2347.00
2023-03-29T13:30:53.720Z,2362.00
2023-03-29T13:36:52.722Z,2408.00
2023-03-29T13:37:53.668Z,2407.00
2023-03-29T13:38:53.645Z,2402.00
2023-03-29T13:41:52.599Z,2419.00
2023-03-29T13:42:53.688Z,2408.00
2023-03-29T13:43:53.698Z,2399.00
2023-03-29T13:48:52.710Z,2378.00
2023-03-29T13:49:53.554Z,2380.00
2023-03-29T13:50:53.517Z,2379.00
2023-03-29T13:51:53.609Z,2380.00
2023-03-29T13:54:52.589Z,2380.00
2023-03-29T13:56:52.541Z,2376.00
2023-03-29T13:57:53.529Z,2370.00
2023-03-29T13:58:53.509Z,2373.00
2023-03-29T14:03:52.446Z,2359.00
2023-03-29T14:04:53.470Z,2354.00
2023-03-29T14:06:52.404Z,2324.00
2023-03-29T14:07:53.434Z,2303.00
2023-03-29T14:08:53.424Z,2297.00
2023-03-29T14:09:53.438Z,2287.00
2023-03-29T14:13:52.601Z,2239.00
2023-03-29T14:14:59.304Z,2229.00
2023-03-29T14:15:53.627Z,2211.00
2023-03-29T14:18:52.601Z,2178.00
2023-03-29T14:23:52.556Z,2165.00
2023-03-29T14:24:53.571Z,2165.00
2023-03-29T14:25:53.569Z,2163.00
2023-03-29T14:30:52.609Z,2176.00
2023-03-29T14:31:53.595Z,2175.00
2023-03-29T14:32:52.600Z,2174.00
2023-03-29T14:33:53.571Z,2174.00
2023-03-29T14:38:52.473Z,2166.00
2023-03-29T14:39:53.478Z,2167.00
2023-03-29T14:40:53.485Z,2169.00
2023-03-29T14:43:52.672Z,2165.00
2023-03-29T14:44:53.717Z,2163.00
2023-03-29T14:45:53.799Z,2163.00
2023-03-29T14:46:53.861Z,2158.00
2023-03-29T14:47:53.948Z,2155.00
2023-03-29T14:48:53.972Z,2154.00
2023-03-29T14:49:54.039Z,2156.00
2023-03-29T14:53:53.264Z,2145.00
2023-03-29T14:56:53.459Z,2142.00
2023-03-29T14:57:54.504Z,2139.00
2023-03-29T14:58:54.576Z,2136.00
2023-03-29T14:59:54.609Z,2137.00
2023-03-29T15:00:54.705Z,2134.00
2023-03-29T15:04:53.928Z,2127.00
2023-03-29T15:05:53.970Z,2126.00
2023-03-29T15:06:55.094Z,2121.00
2023-03-29T15:07:55.086Z,2118.00
2023-03-29T15:09:05.294Z,2118.00
2023-03-29T15:09:55.146Z,2118.00
2023-03-29T15:16:54.098Z,2100.00
2023-03-29T15:17:55.100Z,2096.00
2023-03-29T15:18:54.114Z,2093.00
2023-03-29T15:19:54.064Z,2087.00
2023-03-29T15:21:54.075Z,2081.00
2023-03-29T15:22:55.071Z,2076.00
2023-03-29T15:23:55.079Z,2075.00
2023-03-29T15:25:54.062Z,2069.00
2023-03-29T15:27:54.020Z,2057.00
2023-03-29T15:28:55.029Z,2054.00
2023-03-29T15:29:55.013Z,2051.00
2023-03-29T15:32:13.381Z,2014.00
2023-03-29T15:33:14.258Z,2016.00
2023-03-29T15:34:14.225Z,2018.00
2023-03-29T15:35:14.193Z,2021.00
2023-03-29T15:36:14.185Z,2019.00
2023-03-29T15:37:14.106Z,2019.00
2023-03-29T15:38:13.075Z,2015.00
2023-03-29T15:39:14.044Z,2012.00
2023-03-29T15:40:16.183Z,2014.00
2023-03-29T15:41:14.679Z,2012.00
2023-03-29T15:42:13.999Z,2011.00
2023-03-29T15:43:14.153Z,2012.00
2023-03-29T15:44:13.978Z,2011.00
2023-03-29T15:45:13.004Z,2007.00
2023-03-29T15:46:14.270Z,2002.00
2023-03-29T15:47:12.975Z,2001.00
2023-03-29T15:48:13.972Z,1998.00
2023-03-29T15:49:13.979Z,1992.00
2023-03-29T15:50:13.977Z,1996.00
2023-03-29T15:51:13.969Z,1997.00
2023-03-29T15:52:13.917Z,1992.00
2023-03-29T15:53:15.735Z,1986.00
2023-03-29T15:54:14.182Z,1983.00
2023-03-29T15:55:13.993Z,1981.00
2023-03-29T15:56:14.042Z,1979.00
2023-03-29T15:57:14.067Z,1977.00
2023-03-29T15:58:13.152Z,1978.00
2023-03-29T15:59:13.977Z,1976.00
2023-03-29T16:00:13.976Z,1966.00
2023-03-29T16:01:13.934Z,1960.00
2023-03-29T16:02:12.933Z,1953.00
2023-03-29T16:03:13.978Z,1948.00
2023-03-29T16:04:14.049Z,1949.00
2023-03-29T16:05:13.863Z,1953.00
2023-03-29T16:06:13.902Z,1951.00
2023-03-29T16:07:13.919Z,1949.00
2023-03-29T16:08:13.888Z,1943.00
2023-03-29T16:09:12.802Z,1939.00
2023-03-29T16:10:13.937Z,1936.00
2023-03-29T16:11:13.952Z,1932.00
2023-03-29T16:12:13.952Z,1924.00
2023-03-29T16:13:13.825Z,1922.00
2023-03-29T16:14:13.812Z,1921.00
2023-03-29T16:15:13.821Z,1922.00
2023-03-29T16:16:13.814Z,1914.00
2023-03-29T16:17:13.755Z,1913.00
2023-03-29T16:18:17.364Z,1910.00
2023-03-29T16:19:13.945Z,1908.00
2023-03-29T16:20:14.320Z,1902.00
2023-03-29T16:21:13.750Z,1901.00
2023-03-29T16:22:12.763Z,1901.00
2023-03-29T16:23:12.793Z,1900.00
2023-03-29T16:24:15.525Z,1902.00
2023-03-29T16:25:13.971Z,1900.00
2023-03-29T16:26:13.952Z,1896.00
2023-03-29T16:27:14.958Z,1894.00